sensor_id;sensor_type;location;lat;lon;timestamp;P1;durP1;ratioP1;P2;durP2;ratioP2
44850;SDS011;30583;48.714;9.386;2023-11-19T00:00:24;16.02;;;11.27;;
44850;SDS011;30583;48.714;9.386;2023-11-19T00:02:50;14.82;;;11.32;;
44850;SDS011;30583;48.714;9.386;2023-11-19T00:05:16;15.50;;;10.77;;
44850;SDS011;30583;48.714;9.386;2023-11-19T00:07:41;14.32;;;11.02;;
44850;SDS011;30583;48.714;9.386;2023-11-19T00:10:10;14.55;;;10.70;;
44850;SDS011;30583;48.714;9.386;2023-11-19T00:12:37;14.25;;;10.90;;
44850;SDS011;30583;48.714;9.386;2023-11-19T00:15:04;13.30;;;11.10;;
44850;SDS011;30583;48.714;9.386;2023-11-19T00:17:31;14.50;;;10.55;;
44850;SDS011;30583;48.714;9.386;2023-11-19T00:19:57;17.55;;;11.80;;
44850;SDS011;30583;48.714;9.386;2023-11-19T00:22:22;15.25;;;11.38;;
44850;SDS011;30583;48.714;9.386;2023-11-19T00:24:48;15.35;;;11.15;;
44850;SDS011;30583;48.714;9.386;2023-11-19T00:27:13;12.48;;;9.73;;
44850;SDS011;30583;48.714;9.386;2023-11-19T00:29:39;10.48;;;7.82;;
44850;SDS011;30583;48.714;9.386;2023-11-19T00:32:05;12.07;;;8.27;;
44850;SDS011;30583;48.714;9.386;2023-11-19T00:34:32;8.93;;;7.00;;
44850;SDS011;30583;48.714;9.386;2023-11-19T00:36:58;10.93;;;7.32;;
44850;SDS011;30583;48.714;9.386;2023-11-19T00:39:23;9.43;;;7.63;;
44850;SDS011;30583;48.714;9.386;2023-11-19T00:41:49;8.70;;;6.63;;
44850;SDS011;30583;48.714;9.386;2023-11-19T00:44:15;8.05;;;6.35;;
44850;SDS011;30583;48.714;9.386;2023-11-19T00:46:41;7.25;;;6.10;;
44850;SDS011;30583;48.714;9.386;2023-11-19T00:49:06;8.15;;;6.07;;
44850;SDS011;30583;48.714;9.386;2023-11-19T00:51:32;9.23;;;5.45;;
44850;SDS011;30583;48.714;9.386;2023-11-19T00:53:58;8.73;;;5.60;;
44850;SDS011;30583;48.714;9.386;2023-11-19T00:56:24;9.77;;;5.43;;
44850;SDS011;30583;48.714;9.386;2023-11-19T00:58:49;7.18;;;5.43;;
44850;SDS011;30583;48.714;9.386;2023-11-19T01:01:15;8.25;;;5.32;;
44850;SDS011;30583;48.714;9.386;2023-11-19T01:03:41;6.55;;;4.57;;
44850;SDS011;30583;48.714;9.386;2023-11-19T01:06:06;6.65;;;4.80;;
44850;SDS011;30583;48.714;9.386;2023-11-19T01:08:33;6.97;;;4.53;;
44850;SDS011;30583;48.714;9.386;2023-11-19T01:11:00;7.07;;;4.47;;
44850;SDS011;30583;48.714;9.386;2023-11-19T01:13:27;5.97;;;4.13;;
44850;SDS011;30583;48.714;9.386;2023-11-19T01:15:53;7.35;;;3.80;;
44850;SDS011;30583;48.714;9.386;2023-11-19T01:18:18;7.25;;;3.85;;
44850;SDS011;30583;48.714;9.386;2023-11-19T01:20:44;5.35;;;3.55;;
44850;SDS011;30583;48.714;9.386;2023-11-19T01:23:09;6.45;;;3.55;;
44850;SDS011;30583;48.714;9.386;2023-11-19T01:25:35;6.40;;;3.70;;
44850;SDS011;30583;48.714;9.386;2023-11-19T01:28:00;5.82;;;3.88;;
44850;SDS011;30583;48.714;9.386;2023-11-19T01:30:27;5.15;;;3.47;;
44850;SDS011;30583;48.714;9.386;2023-11-19T01:32:53;6.68;;;4.07;;
44850;SDS011;30583;48.714;9.386;2023-11-19T01:35:18;6.43;;;3.53;;
44850;SDS011;30583;48.714;9.386;2023-11-19T01:37:44;5.88;;;3.63;;
44850;SDS011;30583;48.714;9.386;2023-11-19T01:40:10;5.88;;;3.97;;
44850;SDS011;30583;48.714;9.386;2023-11-19T01:42:39;6.15;;;3.70;;
44850;SDS011;30583;48.714;9.386;2023-11-19T01:45:06;6.55;;;3.45;;
44850;SDS011;30583;48.714;9.386;2023-11-19T01:47:33;6.03;;;3.67;;
44850;SDS011;30583;48.714;9.386;2023-11-19T01:50:00;6.60;;;4.20;;
44850;SDS011;30583;48.714;9.386;2023-11-19T01:52:28;4.88;;;3.70;;
44850;SDS011;30583;48.714;9.386;2023-11-19T01:54:54;5.93;;;4.03;;
44850;SDS011;30583;48.714;9.386;2023-11-19T01:57:21;5.30;;;4.30;;
44850;SDS011;30583;48.714;9.386;2023-11-19T01:59:48;5.38;;;4.05;;
44850;SDS011;30583;48.714;9.386;2023-11-19T02:02:16;6.07;;;4.43;;
44850;SDS011;30583;48.714;9.386;2023-11-19T02:04:45;6.50;;;4.50;;
44850;SDS011;30583;48.714;9.386;2023-11-19T02:07:13;6.72;;;4.03;;
44850;SDS011;30583;48.714;9.386;2023-11-19T02:09:41;6.85;;;4.35;;
44850;SDS011;30583;48.714;9.386;2023-11-19T02:12:07;6.32;;;4.18;;
44850;SDS011;30583;48.714;9.386;2023-11-19T02:14:34;8.20;;;4.25;;
44850;SDS011;30583;48.714;9.386;2023-11-19T02:17:00;6.20;;;4.00;;
44850;SDS011;30583;48.714;9.386;2023-11-19T02:19:25;6.40;;;4.20;;
44850;SDS011;30583;48.714;9.386;2023-11-19T02:21:51;5.32;;;3.88;;
44850;SDS011;30583;48.714;9.386;2023-11-19T02:24:16;6.78;;;4.10;;
44850;SDS011;30583;48.714;9.386;2023-11-19T02:32:01;5.95;;;3.60;;
44850;SDS011;30583;48.714;9.386;2023-11-19T02:34:27;4.72;;;3.58;;
44850;SDS011;30583;48.714;9.386;2023-11-19T02:36:52;4.85;;;3.40;;
44850;SDS011;30583;48.714;9.386;2023-11-19T02:39:18;4.47;;;3.38;;
44850;SDS011;30583;48.714;9.386;2023-11-19T02:41:46;5.43;;;3.10;;
44850;SDS011;30583;48.714;9.386;2023-11-19T02:44:14;4.55;;;3.10;;
44850;SDS011;30583;48.714;9.386;2023-11-19T02:46:40;5.82;;;3.53;;
44850;SDS011;30583;48.714;9.386;2023-11-19T02:49:07;5.50;;;3.35;;
44850;SDS011;30583;48.714;9.386;2023-11-19T02:51:33;4.72;;;2.88;;
44850;SDS011;30583;48.714;9.386;2023-11-19T02:53:59;4.90;;;3.47;;
44850;SDS011;30583;48.714;9.386;2023-11-19T02:56:25;4.88;;;3.08;;
44850;SDS011;30583;48.714;9.386;2023-11-19T02:58:51;5.70;;;3.15;;
44850;SDS011;30583;48.714;9.386;2023-11-19T03:01:24;4.43;;;3.58;;
44850;SDS011;30583;48.714;9.386;2023-11-19T03:03:56;4.82;;;3.60;;
44850;SDS011;30583;48.714;9.386;2023-11-19T03:06:23;4.53;;;3.15;;
44850;SDS011;30583;48.714;9.386;2023-11-19T03:08:49;4.38;;;3.13;;
44850;SDS011;30583;48.714;9.386;2023-11-19T03:11:15;5.70;;;3.50;;
44850;SDS011;30583;48.714;9.386;2023-11-19T03:13:41;4.95;;;3.13;;
44850;SDS011;30583;48.714;9.386;2023-11-19T03:16:07;5.00;;;3.30;;
44850;SDS011;30583;48.714;9.386;2023-11-19T03:18:32;5.63;;;3.47;;
44850;SDS011;30583;48.714;9.386;2023-11-19T03:20:58;4.32;;;2.88;;
44850;SDS011;30583;48.714;9.386;2023-11-19T03:23:24;5.15;;;3.10;;
44850;SDS011;30583;48.714;9.386;2023-11-19T03:25:53;4.95;;;3.28;;
44850;SDS011;30583;48.714;9.386;2023-11-19T03:28:19;4.18;;;3.10;;
44850;SDS011;30583;48.714;9.386;2023-11-19T03:30:45;4.00;;;2.95;;
44850;SDS011;30583;48.714;9.386;2023-11-19T03:33:10;4.25;;;3.03;;
44850;SDS011;30583;48.714;9.386;2023-11-19T03:35:36;6.63;;;3.45;;
44850;SDS011;30583;48.714;9.386;2023-11-19T03:38:02;5.07;;;2.90;;
44850;SDS011;30583;48.714;9.386;2023-11-19T03:40:28;5.88;;;3.00;;
44850;SDS011;30583;48.714;9.386;2023-11-19T03:42:55;4.10;;;2.80;;
44850;SDS011;30583;48.714;9.386;2023-11-19T03:45:23;4.80;;;3.08;;
44850;SDS011;30583;48.714;9.386;2023-11-19T03:47:49;5.65;;;3.20;;
44850;SDS011;30583;48.714;9.386;2023-11-19T03:50:15;5.80;;;3.90;;
44850;SDS011;30583;48.714;9.386;2023-11-19T03:52:41;5.18;;;3.42;;
44850;SDS011;30583;48.714;9.386;2023-11-19T03:55:07;5.57;;;3.30;;
44850;SDS011;30583;48.714;9.386;2023-11-19T03:57:34;3.58;;;2.80;;
44850;SDS011;30583;48.714;9.386;2023-11-19T03:59:59;3.88;;;2.83;;
44850;SDS011;30583;48.714;9.386;2023-11-19T04:02:30;5.05;;;2.80;;
44850;SDS011;30583;48.714;9.386;2023-11-19T04:04:56;4.45;;;2.80;;
44850;SDS011;30583;48.714;9.386;2023-11-19T04:07:21;5.78;;;2.70;;
44850;SDS011;30583;48.714;9.386;2023-11-19T04:09:47;5.60;;;3.40;;
44850;SDS011;30583;48.714;9.386;2023-11-19T04:12:13;4.93;;;3.00;;
44850;SDS011;30583;48.714;9.386;2023-11-19T04:14:38;5.05;;;2.50;;
44850;SDS011;30583;48.714;9.386;2023-11-19T04:17:04;4.10;;;2.17;;
44850;SDS011;30583;48.714;9.386;2023-11-19T04:19:29;3.50;;;2.40;;
44850;SDS011;30583;48.714;9.386;2023-11-19T04:21:57;4.38;;;2.20;;
44850;SDS011;30583;48.714;9.386;2023-11-19T04:24:23;4.10;;;2.28;;
44850;SDS011;30583;48.714;9.386;2023-11-19T04:26:49;3.45;;;2.60;;
44850;SDS011;30583;48.714;9.386;2023-11-19T04:29:15;3.53;;;2.22;;
44850;SDS011;30583;48.714;9.386;2023-11-19T04:31:44;3.83;;;2.05;;
44850;SDS011;30583;48.714;9.386;2023-11-19T04:34:10;3.22;;;1.80;;
44850;SDS011;30583;48.714;9.386;2023-11-19T04:36:36;3.95;;;2.22;;
44850;SDS011;30583;48.714;9.386;2023-11-19T04:39:03;2.67;;;1.80;;
44850;SDS011;30583;48.714;9.386;2023-11-19T04:41:37;3.95;;;1.55;;
44850;SDS011;30583;48.714;9.386;2023-11-19T04:44:14;2.22;;;1.60;;
44850;SDS011;30583;48.714;9.386;2023-11-19T04:46:41;3.17;;;1.52;;
44850;SDS011;30583;48.714;9.386;2023-11-19T04:49:08;3.08;;;1.30;;
44850;SDS011;30583;48.714;9.386;2023-11-19T04:51:39;3.63;;;1.40;;
44850;SDS011;30583;48.714;9.386;2023-11-19T04:54:05;2.60;;;1.45;;
44850;SDS011;30583;48.714;9.386;2023-11-19T04:56:31;2.72;;;1.48;;
44850;SDS011;30583;48.714;9.386;2023-11-19T04:58:57;2.88;;;1.45;;
44850;SDS011;30583;48.714;9.386;2023-11-19T05:01:23;4.30;;;1.42;;
44850;SDS011;30583;48.714;9.386;2023-11-19T05:03:48;2.95;;;2.10;;
44850;SDS011;30583;48.714;9.386;2023-11-19T05:06:14;5.10;;;1.83;;
44850;SDS011;30583;48.714;9.386;2023-11-19T05:08:40;2.13;;;1.50;;
44850;SDS011;30583;48.714;9.386;2023-11-19T05:11:05;2.45;;;1.48;;
44850;SDS011;30583;48.714;9.386;2023-11-19T05:13:31;3.13;;;1.85;;
44850;SDS011;30583;48.714;9.386;2023-11-19T05:15:57;2.05;;;1.52;;
44850;SDS011;30583;48.714;9.386;2023-11-19T05:18:22;2.20;;;1.50;;
44850;SDS011;30583;48.714;9.386;2023-11-19T05:20:48;2.30;;;1.20;;
44850;SDS011;30583;48.714;9.386;2023-11-19T05:23:14;4.53;;;1.30;;
44850;SDS011;30583;48.714;9.386;2023-11-19T05:25:39;1.30;;;0.82;;
44850;SDS011;30583;48.714;9.386;2023-11-19T05:28:05;1.77;;;0.80;;
44850;SDS011;30583;48.714;9.386;2023-11-19T05:30:30;1.27;;;0.73;;
44850;SDS011;30583;48.714;9.386;2023-11-19T05:32:56;4.53;;;1.48;;
44850;SDS011;30583;48.714;9.386;2023-11-19T05:35:21;2.08;;;0.90;;
44850;SDS011;30583;48.714;9.386;2023-11-19T05:37:47;1.20;;;0.85;;
44850;SDS011;30583;48.714;9.386;2023-11-19T05:40:12;1.48;;;0.80;;
44850;SDS011;30583;48.714;9.386;2023-11-19T05:42:42;1.00;;;0.70;;
44850;SDS011;30583;48.714;9.386;2023-11-19T05:45:09;2.70;;;0.88;;
44850;SDS011;30583;48.714;9.386;2023-11-19T05:47:36;0.68;;;0.50;;
44850;SDS011;30583;48.714;9.386;2023-11-19T05:50:02;1.20;;;0.70;;
44850;SDS011;30583;48.714;9.386;2023-11-19T05:52:29;2.15;;;0.90;;
44850;SDS011;30583;48.714;9.386;2023-11-19T05:54:58;1.08;;;0.70;;
44850;SDS011;30583;48.714;9.386;2023-11-19T05:57:27;1.05;;;0.90;;
44850;SDS011;30583;48.714;9.386;2023-11-19T05:59:54;0.95;;;0.80;;
44850;SDS011;30583;48.714;9.386;2023-11-19T06:02:19;2.83;;;0.82;;
44850;SDS011;30583;48.714;9.386;2023-11-19T06:04:45;0.52;;;0.52;;
44850;SDS011;30583;48.714;9.386;2023-11-19T06:07:13;3.65;;;1.08;;
44850;SDS011;30583;48.714;9.386;2023-11-19T06:09:40;1.23;;;0.82;;
44850;SDS011;30583;48.714;9.386;2023-11-19T06:12:05;1.17;;;0.60;;
44850;SDS011;30583;48.714;9.386;2023-11-19T06:14:32;2.20;;;1.40;;
44850;SDS011;30583;48.714;9.386;2023-11-19T06:16:58;1.58;;;1.00;;
44850;SDS011;30583;48.714;9.386;2023-11-19T06:19:23;0.60;;;0.40;;
44850;SDS011;30583;48.714;9.386;2023-11-19T06:21:50;1.38;;;0.30;;
44850;SDS011;30583;48.714;9.386;2023-11-19T06:24:16;1.02;;;0.50;;
44850;SDS011;30583;48.714;9.386;2023-11-19T06:26:42;21.65;;;14.55;;
44850;SDS011;30583;48.714;9.386;2023-11-19T06:29:07;12.13;;;7.55;;
44850;SDS011;30583;48.714;9.386;2023-11-19T06:31:33;2.72;;;1.75;;
44850;SDS011;30583;48.714;9.386;2023-11-19T06:33:58;0.60;;;0.50;;
44850;SDS011;30583;48.714;9.386;2023-11-19T06:36:24;0.98;;;0.50;;
44850;SDS011;30583;48.714;9.386;2023-11-19T06:38:49;1.10;;;0.70;;
44850;SDS011;30583;48.714;9.386;2023-11-19T06:41:15;0.90;;;0.50;;
44850;SDS011;30583;48.714;9.386;2023-11-19T06:43:41;1.05;;;0.70;;
44850;SDS011;30583;48.714;9.386;2023-11-19T06:46:14;1.35;;;0.90;;
44850;SDS011;30583;48.714;9.386;2023-11-19T06:48:43;0.60;;;0.50;;
44850;SDS011;30583;48.714;9.386;2023-11-19T06:51:09;0.50;;;0.40;;
44850;SDS011;30583;48.714;9.386;2023-11-19T06:53:35;0.60;;;0.43;;
44850;SDS011;30583;48.714;9.386;2023-11-19T06:56:01;0.90;;;0.40;;
44850;SDS011;30583;48.714;9.386;2023-11-19T06:58:31;1.88;;;0.60;;
44850;SDS011;30583;48.714;9.386;2023-11-19T07:00:57;0.35;;;0.32;;
44850;SDS011;30583;48.714;9.386;2023-11-19T07:03:23;1.20;;;0.70;;
44850;SDS011;30583;48.714;9.386;2023-11-19T07:05:48;1.95;;;0.70;;
44850;SDS011;30583;48.714;9.386;2023-11-19T07:08:14;1.75;;;0.45;;
44850;SDS011;30583;48.714;9.386;2023-11-19T07:10:39;1.80;;;0.98;;
44850;SDS011;30583;48.714;9.386;2023-11-19T07:13:05;2.28;;;1.40;;
44850;SDS011;30583;48.714;9.386;2023-11-19T07:15:31;2.50;;;1.00;;
44850;SDS011;30583;48.714;9.386;2023-11-19T07:17:57;0.98;;;0.50;;
44850;SDS011;30583;48.714;9.386;2023-11-19T07:20:24;2.10;;;1.17;;
44850;SDS011;30583;48.714;9.386;2023-11-19T07:22:51;3.13;;;1.52;;
44850;SDS011;30583;48.714;9.386;2023-11-19T07:25:17;1.80;;;0.70;;
44850;SDS011;30583;48.714;9.386;2023-11-19T07:27:43;1.95;;;0.70;;
44850;SDS011;30583;48.714;9.386;2023-11-19T07:30:08;1.17;;;0.68;;
44850;SDS011;30583;48.714;9.386;2023-11-19T07:32:34;2.45;;;0.43;;
44850;SDS011;30583;48.714;9.386;2023-11-19T07:35:00;2.40;;;0.63;;
44850;SDS011;30583;48.714;9.386;2023-11-19T07:37:25;1.58;;;0.70;;
44850;SDS011;30583;48.714;9.386;2023-11-19T07:39:51;2.22;;;0.60;;
44850;SDS011;30583;48.714;9.386;2023-11-19T07:42:17;1.15;;;0.60;;
44850;SDS011;30583;48.714;9.386;2023-11-19T07:44:43;0.80;;;0.60;;
44850;SDS011;30583;48.714;9.386;2023-11-19T07:47:09;1.00;;;0.52;;
44850;SDS011;30583;48.714;9.386;2023-11-19T07:49:35;3.88;;;0.80;;
44850;SDS011;30583;48.714;9.386;2023-11-19T07:52:00;1.33;;;0.80;;
44850;SDS011;30583;48.714;9.386;2023-11-19T07:54:27;1.02;;;0.68;;
44850;SDS011;30583;48.714;9.386;2023-11-19T07:56:53;1.15;;;0.40;;
44850;SDS011;30583;48.714;9.386;2023-11-19T07:59:19;2.30;;;0.45;;
44850;SDS011;30583;48.714;9.386;2023-11-19T08:01:45;2.92;;;0.95;;
44850;SDS011;30583;48.714;9.386;2023-11-19T08:04:11;1.83;;;0.80;;
44850;SDS011;30583;48.714;9.386;2023-11-19T08:06:36;1.50;;;0.50;;
44850;SDS011;30583;48.714;9.386;2023-11-19T08:09:02;1.05;;;0.55;;
44850;SDS011;30583;48.714;9.386;2023-11-19T08:11:28;0.77;;;0.57;;
44850;SDS011;30583;48.714;9.386;2023-11-19T08:13:53;0.82;;;0.70;;
44850;SDS011;30583;48.714;9.386;2023-11-19T08:16:19;0.70;;;0.70;;
44850;SDS011;30583;48.714;9.386;2023-11-19T08:18:44;1.00;;;0.52;;
44850;SDS011;30583;48.714;9.386;2023-11-19T08:21:10;1.30;;;0.47;;
44850;SDS011;30583;48.714;9.386;2023-11-19T08:23:36;0.93;;;0.50;;
44850;SDS011;30583;48.714;9.386;2023-11-19T08:26:02;1.52;;;0.70;;
44850;SDS011;30583;48.714;9.386;2023-11-19T08:28:27;0.98;;;0.40;;
44850;SDS011;30583;48.714;9.386;2023-11-19T08:30:53;0.50;;;0.40;;
44850;SDS011;30583;48.714;9.386;2023-11-19T08:33:19;1.45;;;0.60;;
44850;SDS011;30583;48.714;9.386;2023-11-19T08:35:47;0.70;;;0.50;;
44850;SDS011;30583;48.714;9.386;2023-11-19T08:38:13;0.60;;;0.40;;
44850;SDS011;30583;48.714;9.386;2023-11-19T08:40:38;2.22;;;0.82;;
44850;SDS011;30583;48.714;9.386;2023-11-19T08:43:04;2.10;;;0.65;;
44850;SDS011;30583;48.714;9.386;2023-11-19T08:45:31;2.28;;;0.75;;
44850;SDS011;30583;48.714;9.386;2023-11-19T08:47:57;1.48;;;0.60;;
44850;SDS011;30583;48.714;9.386;2023-11-19T08:50:22;1.77;;;0.70;;
44850;SDS011;30583;48.714;9.386;2023-11-19T08:52:48;2.33;;;0.90;;
44850;SDS011;30583;48.714;9.386;2023-11-19T08:55:14;1.10;;;0.70;;
44850;SDS011;30583;48.714;9.386;2023-11-19T08:57:40;3.63;;;0.90;;
44850;SDS011;30583;48.714;9.386;2023-11-19T09:00:05;1.60;;;1.02;;
44850;SDS011;30583;48.714;9.386;2023-11-19T09:02:35;1.55;;;0.90;;
44850;SDS011;30583;48.714;9.386;2023-11-19T09:05:02;3.95;;;2.53;;
44850;SDS011;30583;48.714;9.386;2023-11-19T09:07:28;1.48;;;1.13;;
44850;SDS011;30583;48.714;9.386;2023-11-19T09:09:53;7.18;;;3.75;;
44850;SDS011;30583;48.714;9.386;2023-11-19T09:12:19;10.52;;;5.20;;
44850;SDS011;30583;48.714;9.386;2023-11-19T09:14:44;9.90;;;4.47;;
44850;SDS011;30583;48.714;9.386;2023-11-19T09:17:11;8.07;;;3.00;;
44850;SDS011;30583;48.714;9.386;2023-11-19T09:19:36;3.10;;;1.58;;
44850;SDS011;30583;48.714;9.386;2023-11-19T09:22:02;6.45;;;5.20;;
44850;SDS011;30583;48.714;9.386;2023-11-19T09:24:28;4.20;;;2.17;;
44850;SDS011;30583;48.714;9.386;2023-11-19T09:26:53;2.90;;;1.48;;
44850;SDS011;30583;48.714;9.386;2023-11-19T09:29:20;1.00;;;0.60;;
44850;SDS011;30583;48.714;9.386;2023-11-19T09:31:46;1.95;;;0.77;;
44850;SDS011;30583;48.714;9.386;2023-11-19T09:34:12;0.55;;;0.50;;
44850;SDS011;30583;48.714;9.386;2023-11-19T09:36:37;2.05;;;0.60;;
44850;SDS011;30583;48.714;9.386;2023-11-19T09:39:04;1.45;;;0.60;;
44850;SDS011;30583;48.714;9.386;2023-11-19T09:41:33;2.88;;;1.48;;
44850;SDS011;30583;48.714;9.386;2023-11-19T09:43:59;2.80;;;1.08;;
44850;SDS011;30583;48.714;9.386;2023-11-19T09:46:25;2.13;;;0.70;;
44850;SDS011;30583;48.714;9.386;2023-11-19T09:48:54;28.45;;;19.77;;
44850;SDS011;30583;48.714;9.386;2023-11-19T09:51:22;3.28;;;1.40;;
44850;SDS011;30583;48.714;9.386;2023-11-19T09:53:48;2.80;;;1.70;;
44850;SDS011;30583;48.714;9.386;2023-11-19T09:56:14;3.75;;;0.80;;
44850;SDS011;30583;48.714;9.386;2023-11-19T09:58:42;1.08;;;0.68;;
44850;SDS011;30583;48.714;9.386;2023-11-19T10:01:07;1.02;;;0.68;;
44850;SDS011;30583;48.714;9.386;2023-11-19T10:03:35;1.13;;;0.70;;
44850;SDS011;30583;48.714;9.386;2023-11-19T10:06:04;1.73;;;0.63;;
44850;SDS011;30583;48.714;9.386;2023-11-19T10:08:32;2.15;;;0.82;;
44850;SDS011;30583;48.714;9.386;2023-11-19T10:10:58;3.00;;;1.10;;
44850;SDS011;30583;48.714;9.386;2023-11-19T10:13:27;1.52;;;0.90;;
44850;SDS011;30583;48.714;9.386;2023-11-19T10:15:53;5.80;;;2.53;;
44850;SDS011;30583;48.714;9.386;2023-11-19T10:18:25;4.35;;;1.80;;
44850;SDS011;30583;48.714;9.386;2023-11-19T10:20:51;2.97;;;1.35;;
44850;SDS011;30583;48.714;9.386;2023-11-19T10:23:17;3.35;;;1.40;;
44850;SDS011;30583;48.714;9.386;2023-11-19T10:25:43;2.20;;;1.08;;
44850;SDS011;30583;48.714;9.386;2023-11-19T10:28:09;1.38;;;0.63;;
44850;SDS011;30583;48.714;9.386;2023-11-19T10:30:34;1.73;;;0.80;;
44850;SDS011;30583;48.714;9.386;2023-11-19T10:33:07;2.65;;;1.35;;
44850;SDS011;30583;48.714;9.386;2023-11-19T10:35:51;3.63;;;1.40;;
44850;SDS011;30583;48.714;9.386;2023-11-19T10:38:19;2.90;;;1.40;;
44850;SDS011;30583;48.714;9.386;2023-11-19T10:40:45;1.42;;;1.00;;
44850;SDS011;30583;48.714;9.386;2023-11-19T10:43:11;3.72;;;2.15;;
44850;SDS011;30583;48.714;9.386;2023-11-19T10:45:38;3.33;;;2.00;;
44850;SDS011;30583;48.714;9.386;2023-11-19T10:48:04;2.90;;;1.30;;
44850;SDS011;30583;48.714;9.386;2023-11-19T10:50:33;2.72;;;0.88;;
44850;SDS011;30583;48.714;9.386;2023-11-19T10:53:01;3.22;;;0.93;;
44850;SDS011;30583;48.714;9.386;2023-11-19T10:55:28;5.28;;;1.83;;
44850;SDS011;30583;48.714;9.386;2023-11-19T10:58:03;23.02;;;6.55;;
44850;SDS011;30583;48.714;9.386;2023-11-19T11:00:44;20.42;;;5.97;;
44850;SDS011;30583;48.714;9.386;2023-11-19T11:03:17;3.13;;;1.20;;
44850;SDS011;30583;48.714;9.386;2023-11-19T11:05:48;2.83;;;0.80;;
44850;SDS011;30583;48.714;9.386;2023-11-19T11:08:15;2.13;;;1.10;;
44850;SDS011;30583;48.714;9.386;2023-11-19T11:10:52;2.45;;;1.10;;
44850;SDS011;30583;48.714;9.386;2023-11-19T11:13:22;3.35;;;1.27;;
44850;SDS011;30583;48.714;9.386;2023-11-19T11:15:49;6.00;;;2.03;;
44850;SDS011;30583;48.714;9.386;2023-11-19T11:18:16;5.45;;;2.60;;
44850;SDS011;30583;48.714;9.386;2023-11-19T11:20:45;2.38;;;1.00;;
44850;SDS011;30583;48.714;9.386;2023-11-19T11:33:59;3.13;;;1.25;;
44850;SDS011;30583;48.714;9.386;2023-11-19T11:37:21;1.42;;;0.50;;
44850;SDS011;30583;48.714;9.386;2023-11-19T11:39:31;0.98;;;0.30;;
44850;SDS011;30583;48.714;9.386;2023-11-19T11:42:31;1.38;;;0.50;;
44850;SDS011;30583;48.714;9.386;2023-11-19T11:45:30;1.15;;;0.50;;
44850;SDS011;30583;48.714;9.386;2023-11-19T11:50:15;4.22;;;0.80;;
44850;SDS011;30583;48.714;9.386;2023-11-19T11:55:28;9.88;;;6.38;;
44850;SDS011;30583;48.714;9.386;2023-11-19T11:57:57;3.00;;;1.73;;
44850;SDS011;30583;48.714;9.386;2023-11-19T12:00:32;1.92;;;0.50;;
44850;SDS011;30583;48.714;9.386;2023-11-19T12:03:02;3.05;;;0.60;;
44850;SDS011;30583;48.714;9.386;2023-11-19T12:05:29;1.20;;;0.40;;
44850;SDS011;30583;48.714;9.386;2023-11-19T12:08:02;1.67;;;0.88;;
44850;SDS011;30583;48.714;9.386;2023-11-19T12:10:29;3.75;;;0.60;;
44850;SDS011;30583;48.714;9.386;2023-11-19T12:13:03;2.97;;;0.70;;
44850;SDS011;30583;48.714;9.386;2023-11-19T12:15:31;0.93;;;0.57;;
44850;SDS011;30583;48.714;9.386;2023-11-19T12:17:57;1.80;;;0.50;;
44850;SDS011;30583;48.714;9.386;2023-11-19T12:20:25;1.23;;;0.50;;
44850;SDS011;30583;48.714;9.386;2023-11-19T12:22:51;0.95;;;0.47;;
44850;SDS011;30583;48.714;9.386;2023-11-19T12:25:18;3.13;;;0.60;;
44850;SDS011;30583;48.714;9.386;2023-11-19T12:27:49;2.33;;;1.13;;
44850;SDS011;30583;48.714;9.386;2023-11-19T12:32:49;5.65;;;2.30;;
44850;SDS011;30583;48.714;9.386;2023-11-19T12:35:14;2.67;;;0.90;;
44850;SDS011;30583;48.714;9.386;2023-11-19T12:37:44;1.38;;;0.70;;
44850;SDS011;30583;48.714;9.386;2023-11-19T12:40:17;3.45;;;1.92;;
44850;SDS011;30583;48.714;9.386;2023-11-19T12:42:50;4.38;;;2.63;;
44850;SDS011;30583;48.714;9.386;2023-11-19T12:45:19;1.38;;;0.60;;
44850;SDS011;30583;48.714;9.386;2023-11-19T12:47:46;2.38;;;0.45;;
44850;SDS011;30583;48.714;9.386;2023-11-19T12:50:13;2.47;;;0.60;;
44850;SDS011;30583;48.714;9.386;2023-11-19T12:52:40;2.42;;;0.70;;
44850;SDS011;30583;48.714;9.386;2023-11-19T12:55:24;4.55;;;1.30;;
44850;SDS011;30583;48.714;9.386;2023-11-19T12:57:54;5.20;;;1.50;;
44850;SDS011;30583;48.714;9.386;2023-11-19T13:00:21;3.47;;;1.75;;
44850;SDS011;30583;48.714;9.386;2023-11-19T13:02:49;9.63;;;6.47;;
44850;SDS011;30583;48.714;9.386;2023-11-19T13:05:28;2.70;;;1.02;;
44850;SDS011;30583;48.714;9.386;2023-11-19T13:08:04;3.75;;;1.50;;
44850;SDS011;30583;48.714;9.386;2023-11-19T13:10:32;3.08;;;1.40;;
44850;SDS011;30583;48.714;9.386;2023-11-19T13:13:05;1.75;;;0.70;;
44850;SDS011;30583;48.714;9.386;2023-11-19T13:15:34;2.05;;;0.80;;
44850;SDS011;30583;48.714;9.386;2023-11-19T13:18:01;2.83;;;1.38;;
44850;SDS011;30583;48.714;9.386;2023-11-19T13:20:27;3.78;;;1.30;;
44850;SDS011;30583;48.714;9.386;2023-11-19T13:22:57;3.17;;;1.00;;
44850;SDS011;30583;48.714;9.386;2023-11-19T13:25:24;2.60;;;0.80;;
44850;SDS011;30583;48.714;9.386;2023-11-19T13:27:51;2.67;;;0.90;;
44850;SDS011;30583;48.714;9.386;2023-11-19T13:30:17;3.60;;;0.90;;
44850;SDS011;30583;48.714;9.386;2023-11-19T13:32:43;1.95;;;0.68;;
44850;SDS011;30583;48.714;9.386;2023-11-19T13:35:11;4.18;;;0.57;;
44850;SDS011;30583;48.714;9.386;2023-11-19T13:37:37;2.22;;;0.60;;
44850;SDS011;30583;48.714;9.386;2023-11-19T13:40:03;2.10;;;0.55;;
44850;SDS011;30583;48.714;9.386;2023-11-19T13:42:30;2.30;;;0.70;;
44850;SDS011;30583;48.714;9.386;2023-11-19T13:44:55;3.47;;;1.00;;
44850;SDS011;30583;48.714;9.386;2023-11-19T13:47:21;0.93;;;0.40;;
44850;SDS011;30583;48.714;9.386;2023-11-19T13:49:47;1.45;;;0.50;;
44850;SDS011;30583;48.714;9.386;2023-11-19T13:52:12;3.53;;;0.70;;
44850;SDS011;30583;48.714;9.386;2023-11-19T13:54:38;2.42;;;0.90;;
44850;SDS011;30583;48.714;9.386;2023-11-19T13:57:03;2.25;;;0.90;;
44850;SDS011;30583;48.714;9.386;2023-11-19T13:59:33;5.28;;;2.08;;
44850;SDS011;30583;48.714;9.386;2023-11-19T14:01:58;2.33;;;0.50;;
44850;SDS011;30583;48.714;9.386;2023-11-19T14:04:24;4.13;;;1.15;;
44850;SDS011;30583;48.714;9.386;2023-11-19T14:06:50;6.82;;;2.50;;
44850;SDS011;30583;48.714;9.386;2023-11-19T14:09:16;2.45;;;1.13;;
44850;SDS011;30583;48.714;9.386;2023-11-19T14:11:42;5.35;;;1.90;;
44850;SDS011;30583;48.714;9.386;2023-11-19T14:14:08;4.18;;;1.73;;
44850;SDS011;30583;48.714;9.386;2023-11-19T14:16:34;3.58;;;1.27;;
44850;SDS011;30583;48.714;9.386;2023-11-19T14:18:59;8.85;;;5.90;;
44850;SDS011;30583;48.714;9.386;2023-11-19T14:21:25;17.00;;;14.05;;
44850;SDS011;30583;48.714;9.386;2023-11-19T14:23:52;3.75;;;1.50;;
44850;SDS011;30583;48.714;9.386;2023-11-19T14:26:18;2.35;;;0.75;;
44850;SDS011;30583;48.714;9.386;2023-11-19T14:28:44;2.08;;;0.60;;
44850;SDS011;30583;48.714;9.386;2023-11-19T14:31:09;3.53;;;0.70;;
44850;SDS011;30583;48.714;9.386;2023-11-19T14:33:35;1.55;;;0.63;;
44850;SDS011;30583;48.714;9.386;2023-11-19T14:36:03;3.22;;;0.80;;
44850;SDS011;30583;48.714;9.386;2023-11-19T14:38:29;3.15;;;0.80;;
44850;SDS011;30583;48.714;9.386;2023-11-19T14:40:54;3.00;;;0.85;;
44850;SDS011;30583;48.714;9.386;2023-11-19T14:43:20;2.83;;;1.00;;
44850;SDS011;30583;48.714;9.386;2023-11-19T14:45:46;2.42;;;0.60;;
44850;SDS011;30583;48.714;9.386;2023-11-19T14:48:11;2.83;;;1.50;;
44850;SDS011;30583;48.714;9.386;2023-11-19T14:50:37;5.43;;;1.10;;
44850;SDS011;30583;48.714;9.386;2023-11-19T14:53:02;3.67;;;1.10;;
44850;SDS011;30583;48.714;9.386;2023-11-19T14:55:28;9.70;;;1.80;;
44850;SDS011;30583;48.714;9.386;2023-11-19T14:57:54;3.38;;;1.42;;
44850;SDS011;30583;48.714;9.386;2023-11-19T15:00:21;10.10;;;6.78;;
44850;SDS011;30583;48.714;9.386;2023-11-19T15:02:46;7.03;;;4.88;;
44850;SDS011;30583;48.714;9.386;2023-11-19T15:05:12;2.97;;;0.90;;
44850;SDS011;30583;48.714;9.386;2023-11-19T15:07:38;0.93;;;0.52;;